Time;durP1;ratioP1;P1;durP2;ratioP2;P2;SDS_P1;SDS_P2;PMS_P1;PMS_P2;Temp;Humidity;BMP_temperature;BMP_pressure;BME280_temperature;BME280_humidity;BME280_pressure;Samples;Min_cycle;Max_cycle;Signal;HPM_P1;HPM_P2
2022/08/16 00:00:13;;;;;;;1.00;0.60;;;20.00;1.00;;;;;;5016351;28;20465;-72
2022/08/16 00:02:40;;;;;;;0.70;0.60;;;20.10;1.00;;;;;;5012975;28;20913;-72
2022/08/16 00:05:10;;;;;;;1.00;0.70;;;20.10;1.00;;;;;;5015640;28;20449;-72
2022/08/16 00:07:39;;;;;;;0.80;0.60;;;20.10;1.00;;;;;;5014098;28;20449;-72
2022/08/16 00:10:09;;;;;;;3.13;0.67;;;20.10;1.00;;;;;;5017512;28;20473;-72
2022/08/16 00:12:36;;;;;;;1.00;0.60;;;20.00;1.00;;;;;;5014186;28;20792;-73
2022/08/16 00:15:08;;;;;;;0.80;0.60;;;19.90;1.00;;;;;;5016769;28;20453;-72
2022/08/16 00:17:35;;;;;;;0.80;0.60;;;19.90;1.00;;;;;;5014268;28;20786;-72
2022/08/16 00:20:07;;;;;;;0.83;0.60;;;19.80;1.00;;;;;;5017324;28;20484;-73
2022/08/16 00:22:34;;;;;;;0.97;0.60;;;19.80;1.00;;;;;;5014087;28;20460;-73
2022/08/16 00:25:04;;;;;;;1.30;0.70;;;19.80;1.00;;;;;;5016372;28;20877;-73
2022/08/16 00:27:31;;;;;;;0.90;0.67;;;19.70;1.00;;;;;;5013139;28;20448;-73
2022/08/16 00:29:58;;;;;;;0.93;0.73;;;19.70;63.80;;;;;;5015904;28;20449;-73
2022/08/16 00:32:25;;;;;;;0.83;0.70;;;19.60;99.90;;;;;;5013123;28;20460;-73
2022/08/16 00:34:52;;;;;;;1.83;0.70;;;19.60;99.90;;;;;;5017037;28;20547;-73
2022/08/16 00:37:20;;;;;;;1.10;0.60;;;19.70;99.90;;;;;;5014937;28;21014;-73
2022/08/16 00:39:47;;;;;;;1.00;0.80;;;19.70;99.90;;;;;;5016981;28;20500;-73
2022/08/16 00:42:17;;;;;;;0.80;0.67;;;19.70;99.90;;;;;;5013614;28;20464;-72
2022/08/16 00:44:51;;;;;;;1.63;0.67;;;19.60;99.90;;;;;;5016990;28;20481;-73
2022/08/16 00:47:19;;;;;;;0.80;0.60;;;19.60;1.00;;;;;;5014908;28;20448;-73
2022/08/16 00:49:46;;;;;;;0.90;0.73;;;19.60;1.00;;;;;;5017101;28;20451;-73
2022/08/16 00:52:13;;;;;;;1.10;0.80;;;19.70;1.00;;;;;;5014409;28;20889;-73
2022/08/16 00:54:40;;;;;;;1.13;0.80;;;19.80;23.30;;;;;;5016538;28;20781;-73
2022/08/16 00:57:07;;;;;;;1.27;0.80;;;19.90;1.00;;;;;;5014147;28;20532;-73
2022/08/16 00:59:39;;;;;;;1.33;0.70;;;20.00;1.00;;;;;;5016385;28;20489;-73
2022/08/16 01:02:08;;;;;;;2.03;0.70;;;20.10;1.00;;;;;;5013363;28;20499;-73
2022/08/16 01:04:35;;;;;;;0.80;0.60;;;20.20;99.90;;;;;;5016683;28;20528;-72
2022/08/16 01:07:05;;;;;;;0.77;0.60;;;20.20;1.00;;;;;;5013908;28;20453;-73
2022/08/16 01:09:34;;;;;;;1.73;0.63;;;20.30;99.90;;;;;;5015509;28;20504;-73
2022/08/16 01:12:03;;;;;;;1.97;0.60;;;20.20;1.00;;;;;;5015077;28;20531;-73
2022/08/16 01:14:34;;;;;;;0.90;0.60;;;20.20;1.00;;;;;;5015084;28;20481;-73
2022/08/16 01:17:04;;;;;;;0.90;0.80;;;20.30;1.00;;;;;;5013415;28;20491;-73
2022/08/16 01:19:34;;;;;;;0.70;0.60;;;20.40;1.00;;;;;;5014393;28;20835;-73
2022/08/16 01:22:05;;;;;;;0.90;0.70;;;20.30;1.00;;;;;;5012814;28;20497;-73
2022/08/16 01:24:38;;;;;;;1.27;0.67;;;20.30;1.00;;;;;;5015044;28;20448;-73
2022/08/16 01:27:10;;;;;;;1.00;0.70;;;20.30;1.00;;;;;;5012268;28;20551;-74
2022/08/16 01:29:44;;;;;;;1.33;0.80;;;20.30;1.00;;;;;;5015950;28;20445;-74
2022/08/16 01:32:11;;;;;;;2.73;0.70;;;20.40;1.00;;;;;;5014157;28;20483;-73
2022/08/16 01:34:39;;;;;;;0.87;0.70;;;20.30;99.90;;;;;;5016336;28;20889;-73
2022/08/16 01:37:09;;;;;;;1.00;0.73;;;20.30;99.90;;;;;;5014367;28;21006;-72
2022/08/16 01:39:38;;;;;;;1.30;0.70;;;20.20;1.00;;;;;;5015745;28;20496;-73
2022/08/16 01:42:07;;;;;;;2.50;0.70;;;20.20;1.00;;;;;;5013447;28;20515;-73
2022/08/16 01:44:35;;;;;;;0.97;0.70;;;20.20;1.00;;;;;;5014653;28;20445;-73
2022/08/16 01:47:02;;;;;;;1.00;0.73;;;20.20;1.00;;;;;;5012604;28;20527;-73
2022/08/16 01:49:33;;;;;;;1.00;0.70;;;20.20;1.00;;;;;;5016129;28;20469;-74
2022/08/16 01:52:06;;;;;;;1.00;0.80;;;20.00;99.90;;;;;;5013610;28;20453;-73
2022/08/16 01:54:35;;;;;;;1.00;0.70;;;20.00;1.00;;;;;;5015981;28;20472;-72
2022/08/16 01:57:04;;;;;;;1.00;0.63;;;19.80;99.90;;;;;;5013578;28;20492;-72
2022/08/16 01:59:32;;;;;;;0.80;0.67;;;19.70;1.00;;;;;;5016128;28;20824;-73
2022/08/16 02:01:59;;;;;;;1.10;0.60;;;19.60;1.00;;;;;;5014187;28;20457;-73
2022/08/16 02:04:27;;;;;;;1.47;0.80;;;19.50;1.00;;;;;;5016220;28;20758;-73
2022/08/16 02:06:54;;;;;;;1.60;0.70;;;19.30;99.90;;;;;;5012898;28;20484;-73
2022/08/16 02:09:24;;;;;;;1.63;0.70;;;19.30;99.90;;;;;;5015785;28;20477;-72
2022/08/16 02:11:56;;;;;;;0.97;0.70;;;19.20;99.90;;;;;;5014007;28;20461;-73
2022/08/16 02:14:28;;;;;;;1.03;0.80;;;19.20;1.00;;;;;;5015847;28;20512;-73
2022/08/16 02:16:55;;;;;;;0.90;0.60;;;19.20;1.00;;;;;;5013703;28;20489;-73
2022/08/16 02:19:23;;;;;;;2.13;0.90;;;19.20;1.00;;;;;;5015817;28;20508;-73
2022/08/16 02:21:53;;;;;;;1.20;0.90;;;19.20;1.00;;;;;;5013469;28;20558;-72
2022/08/16 02:24:21;;;;;;;0.90;0.70;;;19.30;1.00;;;;;;5015744;28;20444;-73
2022/08/16 02:26:48;;;;;;;1.13;0.70;;;19.40;99.90;;;;;;5016084;28;20515;-73
2022/08/16 02:29:17;;;;;;;1.23;0.70;;;19.50;99.90;;;;;;5015751;28;20885;-72
2022/08/16 02:31:45;;;;;;;1.10;0.70;;;19.50;99.90;;;;;;5015248;28;20827;-72
2022/08/16 02:34:13;;;;;;;1.17;0.83;;;19.50;99.90;;;;;;5018725;28;20442;-73
2022/08/16 02:36:40;;;;;;;1.17;0.83;;;19.50;99.90;;;;;;5016795;28;20492;-73
2022/08/16 02:39:08;;;;;;;1.00;0.80;;;19.60;99.90;;;;;;5019519;28;20535;-72
2022/08/16 02:41:36;;;;;;;1.00;0.80;;;19.60;99.20;;;;;;5016188;28;20460;-74
2022/08/16 02:44:04;;;;;;;0.90;0.60;;;19.60;40.20;;;;;;5018955;28;20455;-73
2022/08/16 02:46:32;;;;;;;1.23;0.70;;;19.70;1.00;;;;;;5017443;28;20488;-72
2022/08/16 02:49:00;;;;;;;0.90;0.70;;;19.70;1.00;;;;;;5018734;28;20456;-71
2022/08/16 02:51:27;;;;;;;1.13;0.80;;;19.80;1.00;;;;;;5016627;28;20547;-72
2022/08/16 02:53:54;;;;;;;1.00;0.67;;;19.80;1.00;;;;;;5017874;28;20484;-70
2022/08/16 02:56:22;;;;;;;1.00;0.63;;;19.90;99.90;;;;;;5015296;28;20543;-71
2022/08/16 02:58:51;;;;;;;1.00;0.70;;;19.90;1.00;;;;;;5017327;28;20492;-72
2022/08/16 03:01:21;;;;;;;0.80;0.60;;;20.00;1.00;;;;;;5014481;28;20496;-71
2022/08/16 03:03:48;;;;;;;1.10;0.80;;;20.10;1.00;;;;;;5017130;28;20453;-71
2022/08/16 03:06:19;;;;;;;1.77;0.60;;;20.10;3.40;;;;;;5015467;28;20515;-71
2022/08/16 03:08:46;;;;;;;1.00;0.70;;;20.00;1.00;;;;;;5017109;28;20453;-72
2022/08/16 03:11:15;;;;;;;1.50;0.60;;;19.90;1.00;;;;;;5015957;28;20770;-71
2022/08/16 03:13:42;;;;;;;2.17;0.83;;;19.80;99.90;;;;;;5018040;28;20449;-72
2022/08/16 03:16:09;;;;;;;1.63;0.80;;;19.70;1.00;;;;;;5015812;28;20463;-72
2022/08/16 03:18:37;;;;;;;1.00;0.80;;;19.70;1.00;;;;;;5018271;28;20960;-72
2022/08/16 03:21:06;;;;;;;0.90;0.70;;;19.60;1.00;;;;;;5015902;28;20465;-72
2022/08/16 03:23:35;;;;;;;0.93;0.60;;;19.60;98.80;;;;;;5018065;28;20452;-73
2022/08/16 03:26:02;;;;;;;0.90;0.70;;;19.50;99.90;;;;;;5015666;28;20453;-72
2022/08/16 03:28:29;;;;;;;0.90;0.60;;;19.50;99.90;;;;;;5017983;28;20737;-72
2022/08/16 03:30:56;;;;;;;0.93;0.70;;;19.50;99.90;;;;;;5015452;28;20464;-72
2022/08/16 03:33:23;;;;;;;0.80;0.70;;;19.50;99.90;;;;;;5017747;28;20449;-71
2022/08/16 03:35:50;;;;;;;1.10;0.77;;;19.40;99.90;;;;;;5015325;28;20463;-72
2022/08/16 03:38:18;;;;;;;1.10;0.70;;;19.30;1.00;;;;;;5018250;28;20539;-71
2022/08/16 03:40:46;;;;;;;1.20;0.63;;;19.30;1.00;;;;;;5018112;28;20477;-71
2022/08/16 03:43:13;;;;;;;1.30;0.80;;;19.30;1.00;;;;;;5017874;28;20461;-71
2022/08/16 03:45:40;;;;;;;1.00;0.70;;;19.20;1.00;;;;;;5014271;28;20539;-73
2022/08/16 03:48:09;;;;;;;1.10;0.80;;;19.30;1.00;;;;;;5018117;28;20481;-72
2022/08/16 03:50:36;;;;;;;0.90;0.63;;;19.20;1.00;;;;;;5015874;28;20908;-73
2022/08/16 03:53:05;;;;;;;0.90;0.67;;;19.20;1.00;;;;;;5017466;28;20449;-72
2022/08/16 03:55:32;;;;;;;1.00;0.70;;;19.10;1.00;;;;;;5014160;28;20560;-71
2022/08/16 03:58:00;;;;;;;1.00;0.70;;;19.10;1.00;;;;;;5016815;28;20489;-71
2022/08/16 04:00:30;;;;;;;1.07;0.70;;;19.00;1.00;;;;;;5014252;28;20493;-71
2022/08/16 04:03:01;;;;;;;2.17;0.80;;;19.00;1.00;;;;;;5017214;28;20519;-72
2022/08/16 04:05:29;;;;;;;1.40;0.70;;;19.00;1.00;;;;;;5016650;28;20449;-72
2022/08/16 04:07:55;;;;;;;2.53;0.90;;;19.00;1.00;;;;;;5017624;28;20441;-72
2022/08/16 04:10:22;;;;;;;1.30;0.80;;;19.00;1.00;;;;;;5015405;28;20508;-71
2022/08/16 04:12:49;;;;;;;1.30;0.80;;;19.00;1.00;;;;;;5017364;28;20473;-72
2022/08/16 04:15:18;;;;;;;1.00;0.70;;;19.00;1.00;;;;;;5014693;28;20453;-72
2022/08/16 04:17:45;;;;;;;0.90;0.77;;;19.00;1.00;;;;;;5014898;28;20488;-70
2022/08/16 04:20:13;;;;;;;2.10;0.90;;;19.10;1.00;;;;;;5015725;28;20449;-71
2022/08/16 04:22:42;;;;;;;0.93;0.70;;;19.00;1.00;;;;;;5015783;28;20885;-71
2022/08/16 04:25:10;;;;;;;1.73;0.83;;;19.00;1.00;;;;;;5015779;28;20454;-71
2022/08/16 04:27:38;;;;;;;1.70;0.83;;;19.00;1.00;;;;;;5013500;28;20500;-71
2022/08/16 04:30:08;;;;;;;2.37;0.80;;;19.00;1.00;;;;;;5016464;28;20488;-71
2022/08/16 04:32:37;;;;;;;1.43;0.80;;;19.10;1.00;;;;;;5015253;28;20897;-72
2022/08/16 04:35:04;;;;;;;1.20;0.80;;;19.10;1.00;;;;;;5016912;28;20507;-71
2022/08/16 04:37:31;;;;;;;1.20;0.80;;;19.10;1.00;;;;;;5014387;28;20599;-71
2022/08/16 04:39:59;;;;;;;2.33;0.77;;;19.20;1.00;;;;;;5016871;28;20449;-72
2022/08/16 04:42:26;;;;;;;1.00;0.80;;;19.20;1.00;;;;;;5015225;28;20468;-71
2022/08/16 04:44:56;;;;;;;1.63;0.90;;;19.20;1.00;;;;;;5016971;28;20491;-70
2022/08/16 04:47:25;;;;;;;1.73;0.80;;;19.30;1.00;;;;;;5016975;28;20948;-71
2022/08/16 04:49:54;;;;;;;1.50;0.73;;;19.20;1.00;;;;;;5016933;28;20520;-71
2022/08/16 04:52:21;;;;;;;1.20;0.80;;;19.40;1.00;;;;;;5013557;28;20457;-71
2022/08/16 04:54:48;;;;;;;1.53;0.90;;;19.40;1.00;;;;;;5015593;28;20588;-71
2022/08/16 04:57:15;;;;;;;2.57;0.70;;;19.30;1.00;;;;;;5012395;28;20570;-71
2022/08/16 04:59:42;;;;;;;1.00;0.80;;;19.40;1.00;;;;;;5015209;28;20453;-71
2022/08/16 05:02:09;;;;;;;1.10;0.77;;;19.40;1.00;;;;;;5012028;28;20499;-71
2022/08/16 05:04:36;;;;;;;1.20;0.90;;;19.50;1.00;;;;;;5014389;28;20488;-72
2022/08/16 05:07:05;;;;;;;1.40;0.80;;;19.50;99.90;;;;;;5011082;28;20940;-72
2022/08/16 05:09:32;;;;;;;1.40;0.90;;;19.60;99.90;;;;;;5014760;28;20600;-72
2022/08/16 05:11:59;;;;;;;1.10;0.70;;;19.60;99.90;;;;;;5013260;28;20741;-72
2022/08/16 05:14:26;;;;;;;1.17;0.80;;;19.60;99.90;;;;;;5015516;28;20538;-72
2022/08/16 05:16:53;;;;;;;1.73;0.80;;;19.70;99.90;;;;;;5012200;28;20460;-72
2022/08/16 05:19:20;;;;;;;1.47;0.90;;;19.80;99.90;;;;;;5016083;28;20450;-71
2022/08/16 05:21:47;;;;;;;1.90;0.90;;;19.80;1.00;;;;;;5011084;28;21072;-71
2022/08/16 05:24:15;;;;;;;1.47;0.80;;;19.80;43.20;;;;;;5013503;28;20535;-71
2022/08/16 05:26:44;;;;;;;1.00;0.70;;;19.80;36.80;;;;;;5011441;28;20496;-71
2022/08/16 05:29:11;;;;;;;1.40;0.77;;;19.80;99.90;;;;;;5014347;28;20520;-71
2022/08/16 05:31:38;;;;;;;1.13;0.80;;;19.80;99.90;;;;;;5015127;28;20476;-71
2022/08/16 05:34:05;;;;;;;1.43;0.90;;;19.80;15.00;;;;;;5014770;28;20445;-71
2022/08/16 05:36:33;;;;;;;1.63;0.80;;;19.90;1.00;;;;;;5012077;28;20484;-72
2022/08/16 05:39:00;;;;;;;1.00;0.80;;;19.90;1.00;;;;;;5013824;28;20611;-72
2022/08/16 05:41:28;;;;;;;1.23;0.80;;;20.00;1.00;;;;;;5010372;28;20560;-73
2022/08/16 05:43:55;;;;;;;1.23;0.80;;;20.00;1.00;;;;;;5013777;28;20693;-73
2022/08/16 05:46:22;;;;;;;3.03;0.90;;;20.00;1.00;;;;;;5011705;28;20551;-72
2022/08/16 05:48:49;;;;;;;1.00;0.80;;;20.10;1.00;;;;;;5015276;28;20449;-72
2022/08/16 05:51:16;;;;;;;2.43;0.90;;;20.10;1.00;;;;;;5011298;28;20492;-72
2022/08/16 05:53:43;;;;;;;1.30;1.00;;;20.20;1.00;;;;;;5013559;28;20818;-72
2022/08/16 05:56:10;;;;;;;1.10;0.90;;;20.40;1.00;;;;;;5007020;28;20975;-71
2022/08/16 05:58:38;;;;;;;1.10;0.80;;;20.40;1.00;;;;;;5012749;28;20588;-72
2022/08/16 06:01:05;;;;;;;2.37;0.73;;;20.50;1.00;;;;;;5011793;28;20461;-71
2022/08/16 06:03:32;;;;;;;1.33;0.80;;;20.50;1.00;;;;;;5013190;28;20944;-72
2022/08/16 06:05:59;;;;;;;3.00;0.90;;;20.40;1.00;;;;;;5010880;28;20518;-72
2022/08/16 06:08:29;;;;;;;0.97;0.80;;;20.50;1.00;;;;;;5016862;28;20456;-71
2022/08/16 06:10:56;;;;;;;0.90;0.80;;;20.50;1.00;;;;;;5014449;28;20492;-71
2022/08/16 06:13:23;;;;;;;5.33;0.80;;;20.50;95.70;;;;;;5016163;28;20528;-72
2022/08/16 06:15:53;;;;;;;1.40;0.77;;;20.40;96.60;;;;;;5015100;28;20928;-72
2022/08/16 06:18:22;;;;;;;0.90;0.77;;;20.40;99.90;;;;;;5017227;28;20477;-71
2022/08/16 06:20:49;;;;;;;1.20;0.90;;;20.40;1.00;;;;;;5015790;28;20457;-71
2022/08/16 06:23:15;;;;;;;1.10;0.70;;;20.50;1.00;;;;;;5018551;28;20510;-71
2022/08/16 06:25:42;;;;;;;1.00;0.70;;;20.40;1.00;;;;;;5014762;28;20908;-71
2022/08/16 06:28:11;;;;;;;1.23;0.90;;;20.40;1.00;;;;;;5017137;28;20480;-71
2022/08/16 06:30:39;;;;;;;1.00;0.80;;;20.40;1.00;;;;;;5013004;28;20571;-71
2022/08/16 06:33:10;;;;;;;1.20;0.90;;;20.40;1.00;;;;;;5016141;28;20499;-71
2022/08/16 06:35:40;;;;;;;1.00;0.70;;;20.40;99.90;;;;;;5014758;28;20461;-71
2022/08/16 06:38:08;;;;;;;1.30;0.87;;;20.50;99.90;;;;;;5018431;28;20480;-71
2022/08/16 06:40:34;;;;;;;1.00;0.80;;;20.60;1.00;;;;;;5014006;28;20449;-72
2022/08/16 06:43:01;;;;;;;1.10;0.70;;;20.60;1.00;;;;;;5018009;28;20543;-71
2022/08/16 06:45:28;;;;;;;1.55;0.90;;;20.70;1.00;;;;;;5013073;28;20850;-71
2022/08/16 06:47:55;;;;;;;1.20;0.80;;;20.80;99.90;;;;;;5016138;28;20194;-71
2022/08/16 06:50:24;;;;;;;1.43;0.90;;;20.90;1.00;;;;;;5014095;28;20449;-71
2022/08/16 06:52:51;;;;;;;1.10;0.90;;;21.10;99.90;;;;;;5016569;28;20476;-71
2022/08/16 06:55:18;;;;;;;1.50;0.80;;;21.20;1.00;;;;;;5014549;28;20499;-72
2022/08/16 06:57:45;;;;;;;2.07;0.80;;;21.30;1.00;;;;;;5016903;28;20492;-72
2022/08/16 07:00:14;;;;;;;1.87;0.97;;;21.40;1.00;;;;;;5016002;28;20476;-71
2022/08/16 07:02:41;;;;;;;1.43;0.87;;;21.50;99.90;;;;;;5016025;28;20450;-71
2022/08/16 07:05:10;;;;;;;1.27;1.10;;;21.60;84.50;;;;;;5016564;28;20491;-71
2022/08/16 07:07:39;;;;;;;1.30;0.80;;;21.60;80.90;;;;;;5012606;28;20542;-72
2022/08/16 07:10:09;;;;;;;1.67;0.80;;;21.70;7.10;;;;;;5015264;28;20481;-72
2022/08/16 07:12:37;;;;;;;1.03;0.83;;;21.80;1.00;;;;;;5015371;28;20453;-71
2022/08/16 07:15:05;;;;;;;1.00;0.80;;;21.90;1.00;;;;;;5016554;28;20531;-70
2022/08/16 07:17:33;;;;;;;1.07;0.90;;;21.90;1.00;;;;;;5013451;28;20596;-71
2022/08/16 07:20:00;;;;;;;4.30;0.97;;;22.00;1.00;;;;;;5016782;28;20504;-71
2022/08/16 07:22:27;;;;;;;2.30;0.97;;;22.10;1.00;;;;;;5014987;28;20461;-71
2022/08/16 07:24:55;;;;;;;1.20;1.07;;;22.10;1.00;;;;;;5017378;28;20449;-71
2022/08/16 07:27:22;;;;;;;1.00;0.80;;;22.30;1.00;;;;;;5014473;28;20492;-71
2022/08/16 07:29:49;;;;;;;3.10;2.80;;;22.30;99.90;;;;;;5020425;28;20896;-70
2022/08/16 07:32:17;;;;;;;2.30;1.10;;;22.50;99.90;;;;;;5031053;28;20452;-71
2022/08/16 07:34:44;;;;;;;1.50;0.93;;;22.70;99.90;;;;;;5025156;28;20552;-71
2022/08/16 07:37:12;;;;;;;1.23;1.03;;;22.80;99.90;;;;;;5031973;28;20547;-72
2022/08/16 07:39:39;;;;;;;1.20;1.00;;;23.00;90.40;;;;;;5034024;28;20515;-71
2022/08/16 07:42:08;;;;;;;1.20;1.07;;;23.10;17.20;;;;;;5030330;28;20948;-72
2022/08/16 07:44:34;;;;;;;1.50;1.10;;;23.20;1.00;;;;;;5033410;28;20945;-71
2022/08/16 07:47:01;;;;;;;3.33;1.00;;;23.30;1.00;;;;;;5032389;28;20452;-71
2022/08/16 07:49:28;;;;;;;1.57;1.00;;;23.50;1.00;;;;;;5036073;28;20948;-71
2022/08/16 07:51:56;;;;;;;2.50;1.00;;;23.40;1.00;;;;;;5036706;28;20444;-71
2022/08/16 07:54:23;;;;;;;1.60;1.00;;;23.50;1.00;;;;;;5018891;28;20444;-71
2022/08/16 07:56:50;;;;;;;1.30;1.00;;;23.50;1.00;;;;;;5036567;28;20460;-71
2022/08/16 07:59:18;;;;;;;3.53;1.00;;;23.70;1.00;;;;;;5036803;28;20492;-72
2022/08/16 08:01:45;;;;;;;1.23;1.10;;;23.70;1.00;;;;;;5036216;28;20444;-71
2022/08/16 08:04:12;;;;;;;1.40;1.13;;;23.80;1.00;;;;;;5035257;28;21071;-72
2022/08/16 08:06:40;;;;;;;2.30;1.20;;;23.90;1.00;;;;;;5031980;28;20213;-72
2022/08/16 08:09:07;;;;;;;3.07;1.00;;;24.00;1.00;;;;;;5035294;28;20491;-72
2022/08/16 08:11:34;;;;;;;1.20;1.00;;;24.20;1.00;;;;;;5035057;28;20461;-72
2022/08/16 08:14:02;;;;;;;3.57;1.10;;;24.40;1.00;;;;;;5034910;28;20444;-71
2022/08/16 08:16:31;;;;;;;1.80;1.10;;;24.60;1.00;;;;;;5031285;28;20517;-71
2022/08/16 08:18:59;;;;;;;1.97;0.93;;;24.50;1.00;;;;;;5034843;28;20480;-71
2022/08/16 08:21:26;;;;;;;1.07;0.90;;;24.50;1.00;;;;;;5032713;28;20502;-71
2022/08/16 08:23:56;;;;;;;1.87;1.10;;;24.60;1.00;;;;;;5029490;28;20836;-71
2022/08/16 08:26:24;;;;;;;1.60;1.07;;;24.80;1.00;;;;;;5012050;28;20461;-72
2022/08/16 08:28:51;;;;;;;1.40;1.07;;;24.80;1.00;;;;;;5014799;28;20580;-71
2022/08/16 08:31:18;;;;;;;1.37;1.10;;;24.60;1.00;;;;;;5013241;28;20500;-71
2022/08/16 08:33:46;;;;;;;1.97;0.87;;;24.40;1.00;;;;;;5015966;28;20773;-71
2022/08/16 08:36:20;;;;;;;1.00;0.90;;;24.40;1.00;;;;;;5013671;28;20523;-70
2022/08/16 08:38:49;;;;;;;2.10;1.20;;;24.50;1.00;;;;;;5014603;28;20484;-71
2022/08/16 08:41:17;;;;;;;3.37;1.30;;;24.60;1.00;;;;;;5012504;28;20626;-73
2022/08/16 08:43:44;;;;;;;1.10;0.90;;;24.60;1.00;;;;;;5014955;28;20449;-72
2022/08/16 08:46:11;;;;;;;1.17;1.00;;;24.60;1.00;;;;;;5014309;28;20493;-73
2022/08/16 08:48:38;;;;;;;1.60;1.13;;;24.70;1.00;;;;;;5013558;28;20494;-72
2022/08/16 08:51:08;;;;;;;1.40;1.20;;;24.60;1.00;;;;;;5013437;28;20545;-73
2022/08/16 08:53:35;;;;;;;2.00;1.60;;;24.70;1.00;;;;;;5014216;28;20295;-72
2022/08/16 08:56:05;;;;;;;1.17;1.07;;;24.80;1.00;;;;;;5010876;28;20571;-71
2022/08/16 08:58:33;;;;;;;1.70;1.20;;;24.90;1.00;;;;;;5014624;28;20584;-72
2022/08/16 09:01:00;;;;;;;1.20;1.00;;;25.00;1.00;;;;;;5012513;28;20512;-71
2022/08/16 09:03:27;;;;;;;1.30;1.10;;;25.00;1.00;;;;;;5019690;28;20483;-72
2022/08/16 09:05:54;;;;;;;1.90;1.10;;;25.20;1.00;;;;;;5021675;28;20507;-70
2022/08/16 09:08:23;;;;;;;1.20;1.00;;;25.50;1.00;;;;;;5021800;28;20441;-72
2022/08/16 09:10:52;;;;;;;1.40;1.10;;;25.80;1.00;;;;;;5012522;28;20487;-70
2022/08/16 09:13:19;;;;;;;3.37;1.20;;;26.00;1.00;;;;;;5031467;28;20440;-70
2022/08/16 09:15:47;;;;;;;2.10;1.20;;;26.20;1.00;;;;;;5031204;28;20449;-70
2022/08/16 09:18:16;;;;;;;2.87;1.10;;;26.10;1.00;;;;;;5013979;28;20477;-71
2022/08/16 09:20:44;;;;;;;1.20;1.10;;;26.00;1.00;;;;;;5011902;28;20461;-70
2022/08/16 09:23:12;;;;;;;10.03;9.03;;;25.70;1.00;;;;;;5015493;28;20485;-71
2022/08/16 09:25:42;;;;;;;5.00;4.50;;;25.40;1.00;;;;;;5019797;28;20896;-68
2022/08/16 09:28:09;;;;;;;2.20;2.00;;;25.30;1.00;;;;;;5033916;28;20502;-71
2022/08/16 09:30:37;;;;;;;1.43;1.20;;;25.60;1.00;;;;;;5025024;28;20800;-71
2022/08/16 09:33:06;;;;;;;2.20;1.20;;;25.90;1.00;;;;;;5014697;28;20453;-71
2022/08/16 09:35:35;;;;;;;1.20;1.00;;;26.40;1.00;;;;;;5012959;28;20449;-69
2022/08/16 09:38:02;;;;;;;1.30;1.10;;;26.60;1.00;;;;;;5013517;28;20455;-70
2022/08/16 09:40:29;;;;;;;1.20;1.10;;;26.50;1.00;;;;;;5013726;28;20495;-71
2022/08/16 09:42:58;;;;;;;2.43;1.27;;;26.40;1.00;;;;;;5017716;28;20906;-70
2022/08/16 09:45:26;;;;;;;1.30;1.20;;;26.20;1.00;;;;;;5014910;28;20548;-70
2022/08/16 09:47:53;;;;;;;1.70;1.10;;;26.00;1.00;;;;;;5015259;28;20471;-70
2022/08/16 09:50:24;;;;;;;1.37;0.93;;;25.90;1.00;;;;;;5014581;28;20976;-70
2022/08/16 09:52:50;;;;;;;2.30;1.20;;;25.90;1.00;;;;;;5016618;28;20480;-71
2022/08/16 09:55:17;;;;;;;2.70;1.00;;;25.80;1.00;;;;;;5015563;28;20496;-71
2022/08/16 09:57:44;;;;;;;1.23;1.13;;;25.80;1.00;;;;;;5015341;28;20491;-71
2022/08/16 10:00:14;;;;;;;1.37;1.27;;;25.60;1.00;;;;;;5015189;28;20524;-71
2022/08/16 10:02:41;;;;;;;1.20;1.10;;;25.60;1.00;;;;;;5014413;28;20506;-71
2022/08/16 10:05:10;;;;;;;1.20;1.10;;;25.70;1.00;;;;;;5015502;28;20552;-72
2022/08/16 10:07:38;;;;;;;2.23;1.10;;;25.80;1.00;;;;;;5012923;28;20523;-72
2022/08/16 10:10:05;;;;;;;1.30;1.17;;;25.80;1.00;;;;;;5016142;28;20473;-71
2022/08/16 10:15:20;;;;;;;4.33;1.17;;;26.00;1.00;;;;;;5013043;28;20421;-70
2022/08/16 10:17:51;;;;;;;1.40;1.03;;;25.90;1.00;;;;;;5014408;28;20437;-71
2022/08/16 10:20:17;;;;;;;3.10;1.30;;;26.00;1.00;;;;;;5011914;28;20539;-71
2022/08/16 10:22:44;;;;;;;1.40;1.27;;;26.10;1.00;;;;;;5015274;28;20453;-71
2022/08/16 10:25:12;;;;;;;1.20;1.10;;;26.00;1.00;;;;;;5015983;28;20507;-73
2022/08/16 10:27:39;;;;;;;1.40;1.07;;;25.80;1.00;;;;;;5011079;28;20457;-74
2022/08/16 10:30:08;;;;;;;1.60;1.20;;;25.80;1.00;;;;;;5013590;28;20503;-73
2022/08/16 10:32:36;;;;;;;1.73;1.63;;;25.80;1.00;;;;;;5012720;28;20571;-74
2022/08/16 10:35:03;;;;;;;2.10;1.33;;;26.00;1.00;;;;;;5015175;28;20496;-73
2022/08/16 10:37:30;;;;;;;1.60;1.20;;;26.20;1.00;;;;;;5010713;28;20552;-73
2022/08/16 10:39:58;;;;;;;1.27;1.00;;;26.10;1.00;;;;;;5017183;28;20512;-73
2022/08/16 10:42:25;;;;;;;1.40;1.20;;;26.00;1.00;;;;;;5032178;28;20495;-73
2022/08/16 10:44:52;;;;;;;1.50;1.17;;;26.10;1.00;;;;;;5036370;28;20579;-74
2022/08/16 10:47:19;;;;;;;1.60;1.10;;;26.40;1.00;;;;;;5035197;28;21098;-74
2022/08/16 10:49:47;;;;;;;1.80;1.10;;;26.50;1.00;;;;;;5038163;28;20487;-73
2022/08/16 10:52:15;;;;;;;1.30;1.00;;;26.60;1.00;;;;;;5032141;28;20788;-71
2022/08/16 10:54:42;;;;;;;2.60;1.30;;;26.60;1.00;;;;;;5035400;28;20899;-70
2022/08/16 10:57:09;;;;;;;1.10;1.00;;;26.60;1.00;;;;;;5030997;28;20499;-71
2022/08/16 10:59:36;;;;;;;2.27;1.20;;;26.60;1.00;;;;;;5030505;28;20767;-71
2022/08/16 11:02:03;;;;;;;1.30;1.00;;;26.90;1.00;;;;;;5030610;28;21099;-70
2022/08/16 11:04:30;;;;;;;4.27;1.20;;;27.30;1.00;;;;;;5034135;28;20859;-71
2022/08/16 11:06:58;;;;;;;1.50;1.10;;;28.00;1.00;;;;;;5033477;28;20492;-71
2022/08/16 11:09:25;;;;;;;1.70;1.37;;;28.50;1.00;;;;;;5035451;28;20516;-70
2022/08/16 11:11:52;;;;;;;1.43;1.27;;;29.00;1.00;;;;;;5031954;28;20507;-71
2022/08/16 11:14:19;;;;;;;1.23;1.10;;;29.20;1.00;;;;;;5025429;28;20496;-69
2022/08/16 11:16:46;;;;;;;1.67;1.10;;;29.20;1.00;;;;;;5031951;28;20896;-70
2022/08/16 11:19:13;;;;;;;1.30;1.10;;;29.50;1.00;;;;;;5029774;28;20489;-70
2022/08/16 11:21:42;;;;;;;1.63;1.10;;;29.60;1.00;;;;;;5019556;28;20453;-72
2022/08/16 11:24:14;;;;;;;1.67;1.40;;;29.90;1.00;;;;;;5016195;28;20460;-72
2022/08/16 11:26:43;;;;;;;1.80;1.07;;;30.40;1.00;;;;;;5016354;28;20446;-71
2022/08/16 11:29:11;;;;;;;2.80;1.10;;;30.30;1.00;;;;;;5015164;28;20453;-70
2022/08/16 11:31:37;;;;;;;1.20;1.10;;;30.10;1.00;;;;;;5011043;28;20465;-70
2022/08/16 11:34:04;;;;;;;1.27;1.07;;;29.70;1.00;;;;;;5015826;28;20755;-70
2022/08/16 11:36:31;;;;;;;1.20;1.10;;;29.90;1.00;;;;;;5014583;28;20453;-70
2022/08/16 11:38:59;;;;;;;2.30;1.37;;;29.60;1.00;;;;;;5016272;28;20539;-70
2022/08/16 11:41:28;;;;;;;1.70;1.00;;;28.80;1.00;;;;;;5014647;28;20560;-72
2022/08/16 11:43:55;;;;;;;1.43;1.00;;;28.70;1.00;;;;;;4997354;28;20448;-71
2022/08/16 11:46:23;;;;;;;1.13;1.00;;;29.00;1.00;;;;;;5010480;28;20508;-71
2022/08/16 11:48:50;;;;;;;2.03;1.10;;;29.40;1.00;;;;;;5014746;28;20449;-70
2022/08/16 11:51:17;;;;;;;1.60;1.37;;;29.70;1.00;;;;;;5014096;28;20453;-70
2022/08/16 11:53:44;;;;;;;1.47;1.20;;;30.10;1.00;;;;;;5014913;28;20449;-71
2022/08/16 11:56:12;;;;;;;1.40;1.13;;;30.20;1.00;;;;;;5012522;28;20869;-71
2022/08/16 11:58:41;;;;;;;1.20;1.00;;;30.20;1.00;;;;;;5012695;28;20460;-69
2022/08/16 12:01:08;;;;;;;1.30;1.20;;;29.60;1.00;;;;;;5016020;28;20488;-70
2022/08/16 12:03:35;;;;;;;1.30;1.20;;;29.20;1.00;;;;;;5012159;28;20456;-70
2022/08/16 12:06:08;;;;;;;2.03;1.40;;;28.90;1.00;;;;;;5015585;28;20544;-70
2022/08/16 12:08:36;;;;;;;1.23;0.90;;;29.00;1.00;;;;;;5012284;28;20835;-70
2022/08/16 12:11:04;;;;;;;1.10;1.00;;;28.90;1.00;;;;;;5027112;28;20484;-70
2022/08/16 12:13:35;;;;;;;1.00;0.90;;;28.90;1.00;;;;;;5022849;28;20456;-70
2022/08/16 12:16:06;;;;;;;1.10;1.00;;;28.70;1.00;;;;;;5025870;28;20503;-70
2022/08/16 12:18:34;;;;;;;1.50;1.00;;;28.50;1.00;;;;;;5018753;28;20433;-71
2022/08/16 12:21:01;;;;;;;1.57;1.03;;;28.60;1.00;;;;;;5023868;28;20483;-70
2022/08/16 12:23:29;;;;;;;4.13;1.10;;;29.20;1.00;;;;;;5022877;28;20813;-70
2022/08/16 12:25:56;;;;;;;1.33;1.00;;;29.70;1.00;;;;;;5022632;28;20542;-72
2022/08/16 12:28:24;;;;;;;1.10;1.00;;;30.40;1.00;;;;;;5016703;28;20776;-70
2022/08/16 12:30:52;;;;;;;2.33;0.93;;;30.60;1.00;;;;;;5023485;28;20433;-71
2022/08/16 12:33:20;;;;;;;1.23;1.00;;;30.40;1.00;;;;;;5011590;28;20931;-70
2022/08/16 12:35:49;;;;;;;2.20;1.00;;;29.90;1.00;;;;;;5014792;28;20550;-70
2022/08/16 12:38:17;;;;;;;1.00;0.90;;;29.30;1.00;;;;;;5013187;28;20468;-71
2022/08/16 12:40:48;;;;;;;1.20;1.10;;;29.30;1.00;;;;;;5015597;28;20512;-71
2022/08/16 12:43:16;;;;;;;1.43;1.20;;;29.50;1.00;;;;;;5011386;28;20461;-71
2022/08/16 12:45:46;;;;;;;1.23;1.10;;;29.40;1.00;;;;;;5013317;28;20449;-71
2022/08/16 12:51:08;;;;;;;1.40;1.20;;;29.10;1.00;;;;;;5012709;28;20420;-70
2022/08/16 12:53:37;;;;;;;1.03;0.90;;;29.00;1.00;;;;;;5008250;28;20449;-71
2022/08/16 12:56:05;;;;;;;1.43;1.10;;;28.70;1.00;;;;;;5012349;28;20896;-71
2022/08/16 12:58:32;;;;;;;1.43;1.00;;;28.60;1.00;;;;;;5010666;28;20972;-71
2022/08/16 13:00:59;;;;;;;1.50;0.93;;;28.70;1.00;;;;;;5012375;28;20841;-70
2022/08/16 13:03:27;;;;;;;1.13;0.97;;;28.80;1.00;;;;;;5011031;28;20883;-70